ROU2044 CYUL-CYHZ
Flight info
| Callsign | ROU2044 |
|---|---|
| Flight time | 1h 2m |
| Altitude | 31000 |
| Route | AVUKA DCT PUXER Q947 REVEN DCT EBONY FUNDY5 |
| Aircraft | A319/M-VGDW/C |
Departure
| Time | 2026-05-04 21:34 |
|---|---|
| Airport | Montreal / Pierre Elliott Trudeau International Airport (CYUL) |
Arrival
| Time | 2026-05-04 22:36 |
|---|---|
| Airport | Halifax / Stanfield International Airport (CYHZ) |
| Time | Latitude | Longitude | Altitude | Speed | Heading |
|---|---|---|---|---|---|
| 2026-05-04 21:28 | 45.45887 | -73.74438 | 107 ft | 0 kts | 176° |
| 2026-05-04 21:29 | 45.45901 | -73.74440 | 107 ft | 2 kts | 175° |
| 2026-05-04 21:29 | 45.45918 | -73.74442 | 108 ft | 2 kts | 174° |
| 2026-05-04 21:29 | 45.45934 | -73.74445 | 107 ft | 2 kts | 172° |
| 2026-05-04 21:29 | 45.45950 | -73.74449 | 107 ft | 2 kts | 168° |
| 2026-05-04 21:30 | 45.45966 | -73.74455 | 108 ft | 2 kts | 159° |
| 2026-05-04 21:30 | 45.45980 | -73.74466 | 108 ft | 2 kts | 128° |
| 2026-05-04 21:30 | 45.45983 | -73.74485 | 108 ft | 1 kts | 76° |
| 2026-05-04 21:30 | 45.45983 | -73.74488 | 106 ft | 0 kts | 72° |
| 2026-05-04 21:31 | 45.46004 | -73.74410 | 107 ft | 29 kts | 58° |
| 2026-05-04 21:31 | 45.46136 | -73.74154 | 107 ft | 36 kts | 77° |
| 2026-05-04 21:32 | 45.46276 | -73.73881 | 108 ft | 32 kts | 45° |
| 2026-05-04 21:32 | 45.46445 | -73.73656 | 111 ft | 40 kts | 41° |
| 2026-05-04 21:32 | 45.46652 | -73.73387 | 113 ft | 44 kts | 42° |
| 2026-05-04 21:32 | 45.46862 | -73.73111 | 113 ft | 38 kts | 44° |
| 2026-05-04 21:33 | 45.47046 | -73.72866 | 119 ft | 34 kts | 44° |
| 2026-05-04 21:33 | 45.47015 | -73.72712 | 119 ft | 37 kts | 193° |
| 2026-05-04 21:33 | 45.46786 | -73.72813 | 114 ft | 32 kts | 213° |
| 2026-05-04 21:33 | 45.46428 | -73.73286 | 112 ft | 111 kts | 222° |
| 2026-05-04 21:34 | 45.45686 | -73.74215 | 374 ft | 166 kts | 225° |
| 2026-05-04 21:34 | 45.44542 | -73.75095 | 696 ft | 217 kts | 185° |
| 2026-05-04 21:34 | 45.43007 | -73.74914 | 1521 ft | 242 kts | 171° |
| 2026-05-04 21:34 | 45.41332 | -73.74280 | 2287 ft | 252 kts | 159° |
| 2026-05-04 21:35 | 45.39936 | -73.72704 | 3059 ft | 268 kts | 129° |
| 2026-05-04 21:35 | 45.39210 | -73.70219 | 3832 ft | 280 kts | 101° |
| 2026-05-04 21:35 | 45.39269 | -73.67396 | 4605 ft | 293 kts | 86° |
| 2026-05-04 21:35 | 45.39336 | -73.64471 | 5345 ft | 297 kts | 91° |
| 2026-05-04 21:36 | 45.39299 | -73.61438 | 6100 ft | 321 kts | 92° |
| 2026-05-04 21:36 | 45.39226 | -73.58126 | 6824 ft | 350 kts | 92° |
| 2026-05-04 21:36 | 45.39146 | -73.54581 | 7554 ft | 376 kts | 92° |
| 2026-05-04 21:36 | 45.39064 | -73.50741 | 8302 ft | 401 kts | 91° |
| 2026-05-04 21:37 | 45.38986 | -73.46662 | 9070 ft | 423 kts | 91° |
| 2026-05-04 21:37 | 45.38912 | -73.42388 | 9810 ft | 442 kts | 91° |
| 2026-05-04 21:37 | 45.38843 | -73.37912 | 10435 ft | 462 kts | 91° |
| 2026-05-04 21:37 | 45.38777 | -73.33255 | 11064 ft | 479 kts | 90° |
| 2026-05-04 21:38 | 45.38712 | -73.28446 | 11706 ft | 494 kts | 91° |
| 2026-05-04 21:38 | 45.38643 | -73.23493 | 12359 ft | 507 kts | 91° |
| 2026-05-04 21:38 | 45.38570 | -73.18431 | 13033 ft | 518 kts | 91° |
| 2026-05-04 21:38 | 45.38544 | -73.13331 | 13681 ft | 527 kts | 88° |
| 2026-05-04 21:39 | 45.38700 | -73.08086 | 14293 ft | 535 kts | 86° |
| 2026-05-04 21:39 | 45.38953 | -73.02776 | 14917 ft | 542 kts | 85° |
| 2026-05-04 21:39 | 45.39257 | -72.97408 | 15564 ft | 547 kts | 84° |
| 2026-05-04 21:39 | 45.39587 | -72.91986 | 16210 ft | 552 kts | 83° |
| 2026-05-04 21:40 | 45.39958 | -72.86528 | 16868 ft | 556 kts | 83° |
| 2026-05-04 21:40 | 45.40367 | -72.81036 | 17540 ft | 560 kts | 82° |
| 2026-05-04 21:40 | 45.40795 | -72.75516 | 18198 ft | 563 kts | 82° |
| 2026-05-04 21:40 | 45.41231 | -72.69978 | 18802 ft | 562 kts | 81° |
| 2026-05-04 21:41 | 45.41668 | -72.64458 | 19412 ft | 560 kts | 81° |
| 2026-05-04 21:41 | 45.42097 | -72.59030 | 20026 ft | 559 kts | 81° |
| 2026-05-04 21:41 | 45.42528 | -72.53553 | 20669 ft | 557 kts | 81° |
| 2026-05-04 21:41 | 45.42956 | -72.48078 | 21323 ft | 555 kts | 81° |
| 2026-05-04 21:42 | 45.43378 | -72.42626 | 21998 ft | 553 kts | 81° |
| 2026-05-04 21:42 | 45.43796 | -72.37190 | 22674 ft | 552 kts | 81° |
| 2026-05-04 21:42 | 45.44209 | -72.31776 | 23373 ft | 550 kts | 81° |
| 2026-05-04 21:42 | 45.44617 | -72.26363 | 23978 ft | 549 kts | 81° |
| 2026-05-04 21:43 | 45.45021 | -72.20960 | 24582 ft | 548 kts | 80° |
| 2026-05-04 21:43 | 45.45421 | -72.15572 | 25196 ft | 547 kts | 80° |
| 2026-05-04 21:43 | 45.45817 | -72.10187 | 25828 ft | 546 kts | 80° |
| 2026-05-04 21:43 | 45.46204 | -72.04884 | 26461 ft | 545 kts | 80° |
| 2026-05-04 21:44 | 45.46592 | -71.99523 | 27122 ft | 544 kts | 79° |
| 2026-05-04 21:44 | 45.46934 | -71.94781 | 27718 ft | 543 kts | 79° |
| 2026-05-04 21:44 | 45.47318 | -71.89446 | 28415 ft | 541 kts | 79° |
| 2026-05-04 21:44 | 45.47698 | -71.84115 | 29122 ft | 539 kts | 79° |
| 2026-05-04 21:45 | 45.48073 | -71.78814 | 29844 ft | 537 kts | 78° |
| 2026-05-04 21:45 | 45.48447 | -71.73532 | 30353 ft | 537 kts | 78° |
| 2026-05-04 21:45 | 45.48826 | -71.68225 | 30577 ft | 539 kts | 78° |
| 2026-05-04 21:46 | 45.49571 | -71.57651 | 30724 ft | 539 kts | 78° |
| 2026-05-04 21:46 | 45.50306 | -71.47009 | 30755 ft | 539 kts | 78° |
| 2026-05-04 21:47 | 45.51026 | -71.36364 | 30774 ft | 539 kts | 78° |
| 2026-05-04 21:47 | 45.51734 | -71.25729 | 30782 ft | 539 kts | 78° |
| 2026-05-04 21:48 | 45.52425 | -71.15173 | 30790 ft | 538 kts | 78° |
| 2026-05-04 21:48 | 45.53114 | -71.04543 | 30794 ft | 538 kts | 78° |
| 2026-05-04 21:49 | 45.53790 | -70.93925 | 30787 ft | 538 kts | 78° |
| 2026-05-04 21:49 | 45.54457 | -70.83303 | 30784 ft | 538 kts | 78° |
| 2026-05-04 21:50 | 45.54975 | -70.72721 | 30784 ft | 545 kts | 87° |
| 2026-05-04 21:50 | 45.53796 | -70.61942 | 30781 ft | 553 kts | 97° |
| 2026-05-04 21:51 | 45.52121 | -70.51228 | 30787 ft | 554 kts | 99° |
| 2026-05-04 21:51 | 45.50343 | -70.40544 | 30789 ft | 554 kts | 99° |
| 2026-05-04 21:52 | 45.48534 | -70.29883 | 30784 ft | 554 kts | 99° |
| 2026-05-04 21:52 | 45.46710 | -70.19228 | 30785 ft | 554 kts | 99° |
| 2026-05-04 21:53 | 45.44888 | -70.08647 | 30787 ft | 554 kts | 99° |
| 2026-05-04 21:53 | 45.43045 | -69.97993 | 30776 ft | 554 kts | 99° |
| 2026-05-04 21:53 | 45.42128 | -69.92737 | 30781 ft | 533 kts | 99° |
| 2026-05-04 21:54 | 45.41248 | -69.87765 | 30783 ft | 505 kts | 99° |
| 2026-05-04 21:54 | 45.39553 | -69.78161 | 30790 ft | 503 kts | 99° |
| 2026-05-04 21:55 | 45.37864 | -69.68505 | 30786 ft | 508 kts | 99° |
| 2026-05-04 21:55 | 45.36138 | -69.58655 | 30783 ft | 523 kts | 99° |
| 2026-05-04 21:56 | 45.34346 | -69.48451 | 30778 ft | 537 kts | 99° |
| 2026-05-04 21:56 | 45.32525 | -69.38234 | 30777 ft | 531 kts | 99° |
| 2026-05-04 21:57 | 45.30710 | -69.28125 | 30782 ft | 533 kts | 99° |
| 2026-05-04 21:57 | 45.28868 | -69.17911 | 30776 ft | 534 kts | 99° |
| 2026-05-04 21:58 | 45.27017 | -69.07709 | 30776 ft | 534 kts | 99° |
| 2026-05-04 21:58 | 45.25153 | -68.97492 | 30782 ft | 536 kts | 99° |
| 2026-05-04 21:59 | 45.23385 | -68.87843 | 30781 ft | 536 kts | 99° |
| 2026-05-04 21:59 | 45.21502 | -68.77619 | 30778 ft | 535 kts | 100° |
| 2026-05-04 22:00 | 45.19623 | -68.67468 | 30779 ft | 537 kts | 100° |
| 2026-05-04 22:00 | 45.17716 | -68.57227 | 30788 ft | 537 kts | 100° |
| 2026-05-04 22:01 | 45.15803 | -68.47003 | 30788 ft | 537 kts | 101° |
| 2026-05-04 22:01 | 45.13881 | -68.36779 | 30794 ft | 537 kts | 101° |
| 2026-05-04 22:02 | 45.11961 | -68.26619 | 30789 ft | 537 kts | 101° |
| 2026-05-04 22:02 | 45.10020 | -68.16414 | 30783 ft | 537 kts | 101° |
| 2026-05-04 22:03 | 45.08068 | -68.06200 | 30788 ft | 538 kts | 102° |
| 2026-05-04 22:03 | 45.06100 | -67.96063 | 30780 ft | 533 kts | 102° |
| 2026-05-04 22:04 | 45.04147 | -67.85903 | 30776 ft | 537 kts | 102° |
| 2026-05-04 22:04 | 45.02197 | -67.75805 | 30782 ft | 534 kts | 103° |
| 2026-05-04 22:05 | 45.00223 | -67.65700 | 30781 ft | 534 kts | 103° |
| 2026-05-04 22:05 | 44.98236 | -67.55582 | 30782 ft | 534 kts | 104° |
| 2026-05-04 22:06 | 44.96244 | -67.45516 | 30781 ft | 532 kts | 104° |
| 2026-05-04 22:06 | 44.94253 | -67.35516 | 30778 ft | 532 kts | 104° |
| 2026-05-04 22:07 | 44.92243 | -67.25494 | 30776 ft | 531 kts | 105° |
| 2026-05-04 22:07 | 44.90674 | -67.15356 | 30783 ft | 528 kts | 92° |
| 2026-05-04 22:08 | 44.90359 | -67.05040 | 30788 ft | 525 kts | 89° |
| 2026-05-04 22:08 | 44.90279 | -66.94801 | 30787 ft | 526 kts | 88° |
| 2026-05-04 22:09 | 44.90248 | -66.84501 | 30782 ft | 525 kts | 88° |
| 2026-05-04 22:09 | 44.90223 | -66.74194 | 30786 ft | 526 kts | 88° |
| 2026-05-04 22:10 | 44.90189 | -66.63894 | 30777 ft | 525 kts | 88° |
| 2026-05-04 22:10 | 44.90144 | -66.53661 | 30780 ft | 525 kts | 89° |
| 2026-05-04 22:11 | 44.90086 | -66.43359 | 30783 ft | 525 kts | 89° |
| 2026-05-04 22:11 | 44.90016 | -66.33065 | 30790 ft | 525 kts | 89° |
| 2026-05-04 22:12 | 44.90108 | -66.22798 | 30793 ft | 523 kts | 84° |
| 2026-05-04 22:12 | 44.90422 | -66.17667 | 30414 ft | 529 kts | 82° |
| 2026-05-04 22:12 | 44.90802 | -66.12516 | 29928 ft | 524 kts | 82° |
| 2026-05-04 22:12 | 44.91199 | -66.07437 | 29368 ft | 516 kts | 81° |
| 2026-05-04 22:13 | 44.91588 | -66.02578 | 28801 ft | 497 kts | 81° |
| 2026-05-04 22:13 | 44.91976 | -65.97773 | 28254 ft | 498 kts | 81° |
| 2026-05-04 22:13 | 44.92380 | -65.92807 | 27700 ft | 521 kts | 82° |
| 2026-05-04 22:13 | 44.92792 | -65.87654 | 27159 ft | 532 kts | 82° |
| 2026-05-04 22:14 | 44.93192 | -65.82515 | 26985 ft | 528 kts | 82° |
| 2026-05-04 22:14 | 44.93585 | -65.77345 | 26624 ft | 531 kts | 82° |
| 2026-05-04 22:14 | 44.93971 | -65.72172 | 26258 ft | 528 kts | 83° |
| 2026-05-04 22:14 | 44.94347 | -65.67020 | 25904 ft | 528 kts | 83° |
| 2026-05-04 22:15 | 44.94712 | -65.61941 | 25550 ft | 526 kts | 83° |
| 2026-05-04 22:15 | 44.95072 | -65.56833 | 25201 ft | 513 kts | 83° |
| 2026-05-04 22:15 | 44.95410 | -65.51957 | 24849 ft | 487 kts | 83° |
| 2026-05-04 22:15 | 44.95727 | -65.47306 | 24510 ft | 465 kts | 83° |
| 2026-05-04 22:16 | 44.96026 | -65.42854 | 24171 ft | 447 kts | 83° |
| 2026-05-04 22:16 | 44.96280 | -65.39034 | 23883 ft | 434 kts | 83° |
| 2026-05-04 22:16 | 44.96559 | -65.34833 | 23558 ft | 428 kts | 83° |
| 2026-05-04 22:16 | 44.96836 | -65.30645 | 23211 ft | 429 kts | 83° |
| 2026-05-04 22:17 | 44.97111 | -65.26463 | 22818 ft | 426 kts | 84° |
| 2026-05-04 22:17 | 44.97378 | -65.22370 | 22429 ft | 422 kts | 84° |
| 2026-05-04 22:17 | 44.97645 | -65.18256 | 22048 ft | 419 kts | 84° |
| 2026-05-04 22:17 | 44.97908 | -65.14172 | 21672 ft | 417 kts | 84° |
| 2026-05-04 22:18 | 44.98166 | -65.10107 | 21298 ft | 415 kts | 84° |
| 2026-05-04 22:18 | 44.98395 | -65.06492 | 20969 ft | 413 kts | 84° |
| 2026-05-04 22:18 | 44.98647 | -65.02478 | 20603 ft | 408 kts | 84° |
| 2026-05-04 22:18 | 44.98895 | -64.98495 | 20240 ft | 406 kts | 85° |
| 2026-05-04 22:19 | 44.99141 | -64.94526 | 19883 ft | 405 kts | 85° |
| 2026-05-04 22:19 | 44.99385 | -64.90570 | 19535 ft | 403 kts | 85° |
| 2026-05-04 22:19 | 44.99625 | -64.86655 | 19183 ft | 398 kts | 85° |
| 2026-05-04 22:19 | 44.99858 | -64.82822 | 18846 ft | 396 kts | 85° |
| 2026-05-04 22:20 | 45.00092 | -64.78942 | 18504 ft | 396 kts | 85° |
| 2026-05-04 22:20 | 45.00324 | -64.75078 | 18176 ft | 393 kts | 85° |
| 2026-05-04 22:20 | 45.00476 | -64.72538 | 17938 ft | 390 kts | 85° |
| 2026-05-04 22:20 | 45.00778 | -64.67458 | 17425 ft | 386 kts | 85° |
| 2026-05-04 22:21 | 45.01001 | -64.63679 | 17047 ft | 385 kts | 85° |
| 2026-05-04 22:21 | 45.01220 | -64.59919 | 16697 ft | 382 kts | 85° |
| 2026-05-04 22:21 | 45.01363 | -64.57454 | 16453 ft | 379 kts | 86° |
| 2026-05-04 22:21 | 45.01646 | -64.52561 | 15968 ft | 376 kts | 86° |
| 2026-05-04 22:22 | 45.01856 | -64.48888 | 15598 ft | 374 kts | 86° |
| 2026-05-04 22:22 | 45.02064 | -64.45232 | 15166 ft | 373 kts | 86° |
| 2026-05-04 22:22 | 45.02200 | -64.42825 | 14844 ft | 369 kts | 86° |
| 2026-05-04 22:22 | 45.02471 | -64.38027 | 14185 ft | 363 kts | 86° |
| 2026-05-04 22:23 | 45.02671 | -64.34479 | 13709 ft | 361 kts | 86° |
| 2026-05-04 22:23 | 45.02801 | -64.32150 | 13375 ft | 359 kts | 86° |
| 2026-05-04 22:23 | 45.02996 | -64.28647 | 12850 ft | 355 kts | 86° |
| 2026-05-04 22:23 | 45.03189 | -64.25190 | 12313 ft | 350 kts | 86° |
| 2026-05-04 22:24 | 45.03439 | -64.20668 | 11622 ft | 347 kts | 86° |
| 2026-05-04 22:24 | 45.03626 | -64.17274 | 11115 ft | 345 kts | 86° |
| 2026-05-04 22:24 | 45.03809 | -64.13936 | 10613 ft | 337 kts | 86° |
| 2026-05-04 22:24 | 45.03927 | -64.11770 | 10288 ft | 332 kts | 86° |
| 2026-05-04 22:25 | 45.04104 | -64.08546 | 9797 ft | 325 kts | 86° |
| 2026-05-04 22:25 | 45.04276 | -64.05391 | 9270 ft | 320 kts | 86° |
| 2026-05-04 22:25 | 45.04442 | -64.02285 | 8751 ft | 314 kts | 86° |
| 2026-05-04 22:25 | 45.04602 | -63.99224 | 8229 ft | 310 kts | 86° |
| 2026-05-04 22:26 | 45.04810 | -63.95234 | 7542 ft | 304 kts | 86° |
| 2026-05-04 22:26 | 45.04963 | -63.92268 | 7050 ft | 301 kts | 86° |
| 2026-05-04 22:26 | 45.05065 | -63.90285 | 6708 ft | 298 kts | 86° |
| 2026-05-04 22:26 | 45.05213 | -63.87415 | 6219 ft | 295 kts | 86° |
| 2026-05-04 22:27 | 45.05362 | -63.84541 | 5698 ft | 292 kts | 85° |
| 2026-05-04 22:27 | 45.05502 | -63.81705 | 5309 ft | 285 kts | 85° |
| 2026-05-04 22:27 | 45.05640 | -63.78930 | 5157 ft | 284 kts | 85° |
| 2026-05-04 22:27 | 45.05785 | -63.76141 | 5087 ft | 284 kts | 85° |
| 2026-05-04 22:28 | 45.05930 | -63.73334 | 5052 ft | 288 kts | 85° |
| 2026-05-04 22:28 | 45.06076 | -63.70518 | 5044 ft | 286 kts | 85° |
| 2026-05-04 22:28 | 45.06222 | -63.67684 | 4634 ft | 290 kts | 84° |
| 2026-05-04 22:28 | 45.06357 | -63.64908 | 4196 ft | 283 kts | 84° |
| 2026-05-04 22:29 | 45.06491 | -63.62171 | 3987 ft | 272 kts | 84° |
| 2026-05-04 22:29 | 45.06625 | -63.59507 | 4014 ft | 263 kts | 84° |
| 2026-05-04 22:29 | 45.06745 | -63.57078 | 4020 ft | 236 kts | 84° |
| 2026-05-04 22:29 | 45.06865 | -63.54773 | 4020 ft | 233 kts | 84° |
| 2026-05-04 22:30 | 45.06981 | -63.52481 | 4021 ft | 235 kts | 84° |
| 2026-05-04 22:30 | 45.07097 | -63.50190 | 4000 ft | 235 kts | 86° |
| 2026-05-04 22:30 | 45.06778 | -63.47955 | 3840 ft | 233 kts | 117° |
| 2026-05-04 22:30 | 45.05944 | -63.46033 | 3602 ft | 234 kts | 117° |
| 2026-05-04 22:31 | 45.05215 | -63.43996 | 3284 ft | 230 kts | 115° |
| 2026-05-04 22:31 | 45.04527 | -63.41971 | 3139 ft | 228 kts | 114° |
| 2026-05-04 22:31 | 45.03873 | -63.40024 | 3044 ft | 215 kts | 114° |
| 2026-05-04 22:31 | 45.02947 | -63.38400 | 2729 ft | 209 kts | 146° |
| 2026-05-04 22:32 | 45.01606 | -63.37851 | 2455 ft | 201 kts | 186° |
| 2026-05-04 22:32 | 45.00330 | -63.38432 | 2216 ft | 188 kts | 216° |
| 2026-05-04 22:32 | 44.99254 | -63.39497 | 2110 ft | 192 kts | 221° |
| 2026-05-04 22:32 | 44.98217 | -63.40611 | 2062 ft | 189 kts | 223° |
| 2026-05-04 22:33 | 44.97188 | -63.41739 | 2043 ft | 187 kts | 223° |
| 2026-05-04 22:33 | 44.96185 | -63.42860 | 2046 ft | 189 kts | 225° |
| 2026-05-04 22:33 | 44.95201 | -63.44040 | 2038 ft | 188 kts | 226° |
| 2026-05-04 22:33 | 44.94201 | -63.45179 | 2039 ft | 176 kts | 224° |
| 2026-05-04 22:34 | 44.93246 | -63.46153 | 1936 ft | 171 kts | 221° |
| 2026-05-04 22:34 | 44.92602 | -63.46804 | 1745 ft | 170 kts | 221° |
| 2026-05-04 22:35 | 44.92244 | -63.47154 | 1626 ft | 167 kts | 220° |
| 2026-05-04 22:35 | 44.91297 | -63.48074 | 1263 ft | 159 kts | 221° |
| 2026-05-04 22:35 | 44.90441 | -63.48934 | 895 ft | 146 kts | 219° |
| 2026-05-04 22:35 | 44.89654 | -63.49715 | 669 ft | 129 kts | 218° |
| 2026-05-04 22:36 | 44.88966 | -63.50370 | 522 ft | 114 kts | 219° |
| 2026-05-04 22:36 | 44.88251 | -63.51076 | 463 ft | 125 kts | 218° |
| 2026-05-04 22:36 | 44.87652 | -63.51661 | 455 ft | 73 kts | 214° |
| 2026-05-04 22:36 | 44.87452 | -63.51930 | 459 ft | 21 kts | 254° |
| 2026-05-04 22:37 | 44.87454 | -63.52052 | 466 ft | 6 kts | 288° |
| 2026-05-04 22:37 | 44.87466 | -63.52082 | 467 ft | 0 kts | 305° |
| 2026-05-04 22:37 | 44.87515 | -63.52107 | 465 ft | 23 kts | 22° |
| 2026-05-04 22:38 | 44.87645 | -63.51988 | 471 ft | 22 kts | 37° |
| 2026-05-04 22:38 | 44.87771 | -63.51865 | 459 ft | 24 kts | 34° |
| 2026-05-04 22:38 | 44.87841 | -63.51794 | 468 ft | 1 kts | 35° |
| 2026-05-04 22:38 | 44.87914 | -63.51723 | 465 ft | 18 kts | 34° |
| 2026-05-04 22:39 | 44.88018 | -63.51619 | 457 ft | 19 kts | 34° |
| 2026-05-04 22:39 | 44.88119 | -63.51518 | 454 ft | 15 kts | 36° |
| 2026-05-04 22:39 | 44.88199 | -63.51438 | 453 ft | 13 kts | 36° |
| 2026-05-04 22:39 | 44.88268 | -63.51371 | 452 ft | 10 kts | 34° |
| 2026-05-04 22:40 | 44.88315 | -63.51327 | 454 ft | 16 kts | 34° |
| 2026-05-04 22:40 | 44.88435 | -63.51213 | 454 ft | 18 kts | 14° |
| 2026-05-04 22:40 | 44.88554 | -63.51226 | 454 ft | 17 kts | 354° |
| 2026-05-04 22:40 | 44.88639 | -63.51283 | 454 ft | 13 kts | 302° |
| 2026-05-04 22:41 | 44.88642 | -63.51363 | 451 ft | 6 kts | 262° |
| 2026-05-04 22:41 | 44.88640 | -63.51374 | 451 ft | 0 kts | 261° |